RJSF/FKS METAR and TAF weather

Enter ICAO airport designator
Station Type Date Time Source
RJSF METAR 2019/02/16 07:00 UTC NOAA

RJSF 160700Z 34015KT 9999 FEW015 02/M03 Q1008


Station Type Date Time Source
RJSF Decoded METAR 2019/02/16 07:00 UTC NOAA

Fukushima Airport, Japan (RJSF) 37-14N 140-26E 375M
Feb 16, 2019 - 02:00 AM EST / 2019.02.16 0700 UTC
Wind: from the NNW (340 degrees) at 17 MPH (15 KT):0
Visibility: greater than 7 mile(s):0
Sky conditions: mostly clear
Temperature: 35 F (2 C)
Windchill: 24 F (-4 C):1
Dew Point: 26 F (-3 C)
Relative Humidity: 69%
Pressure (altimeter): 29.77 in. Hg (1008 hPa)
ob: RJSF 160700Z 34015KT 9999 FEW015 02/M03 Q1008
cycle: 7

Station Type Date Time Source
RJSF TAF 2019/02/16 06:30 UTC NOAA

TAF TAF RJSF 160507Z 1606/1712 34013KT 9999 FEW020 SCT030
TEMPO 1700/1706 32015G25KT


Example: see airport list